createdAt,value
2023-04-27T00:00:55.027Z,984.11
2023-04-27T00:01:55.028Z,984.12
2023-04-27T00:02:55.176Z,984.10
2023-04-27T00:03:55.252Z,984.08
2023-04-27T00:04:55.279Z,984.06
2023-04-27T00:05:55.175Z,984.03
2023-04-27T00:06:55.006Z,984.08
2023-04-27T00:07:54.969Z,984.03
2023-04-27T00:08:54.953Z,984.09
2023-04-27T00:09:54.958Z,984.10
2023-04-27T00:10:54.944Z,984.11
2023-04-27T00:11:54.937Z,984.04
2023-04-27T00:12:54.921Z,983.96
2023-04-27T00:13:54.912Z,984.03
2023-04-27T00:14:54.944Z,984.08
2023-04-27T00:15:54.934Z,984.05
2023-04-27T00:16:54.927Z,984.04
2023-04-27T00:17:54.940Z,983.97
2023-04-27T00:18:54.948Z,983.94
2023-04-27T00:19:54.855Z,984.01
2023-04-27T00:20:54.847Z,984.03
2023-04-27T00:21:54.841Z,983.98
2023-04-27T00:22:54.823Z,984.00
2023-04-27T00:23:54.817Z,983.97
2023-04-27T00:24:54.798Z,983.94
2023-04-27T00:25:54.804Z,983.98
2023-04-27T00:26:54.798Z,983.98
2023-04-27T00:27:54.782Z,983.95
2023-04-27T00:28:54.775Z,983.96
2023-04-27T00:29:54.766Z,983.96
2023-04-27T00:30:54.774Z,983.95
2023-04-27T00:31:54.775Z,984.02
2023-04-27T00:32:54.761Z,984.01
2023-04-27T00:33:54.730Z,984.01
2023-04-27T00:34:54.726Z,983.98
2023-04-27T00:35:54.717Z,983.94
2023-04-27T00:36:54.693Z,983.92
2023-04-27T00:37:54.685Z,983.92
2023-04-27T00:38:54.677Z,983.99
2023-04-27T00:39:54.666Z,983.99
2023-04-27T00:40:54.668Z,983.96
2023-04-27T00:41:54.652Z,983.94
2023-04-27T00:42:54.639Z,983.94
2023-04-27T00:43:54.636Z,983.90
2023-04-27T00:44:54.622Z,983.90
2023-04-27T00:45:54.676Z,983.92
2023-04-27T00:46:54.612Z,983.91
2023-04-27T00:47:54.647Z,983.92
2023-04-27T00:48:54.582Z,983.91
2023-04-27T00:49:54.582Z,983.94
2023-04-27T00:50:54.568Z,983.92
2023-04-27T00:51:54.568Z,983.88
2023-04-27T00:52:54.567Z,983.91
2023-04-27T00:53:54.554Z,983.94
2023-04-27T00:54:54.533Z,983.90
2023-04-27T00:55:54.530Z,983.90
2023-04-27T00:56:54.527Z,983.88
2023-04-27T00:57:54.505Z,983.92
2023-04-27T00:58:54.496Z,983.90
2023-04-27T00:59:54.499Z,983.97
2023-04-27T01:00:54.485Z,983.94
2023-04-27T01:01:54.465Z,983.93
2023-04-27T01:02:54.524Z,983.90
2023-04-27T01:03:54.599Z,983.95
2023-04-27T01:04:54.444Z,983.93
2023-04-27T01:05:54.450Z,983.91
2023-04-27T01:06:54.413Z,983.95
2023-04-27T01:07:54.438Z,983.92
2023-04-27T01:08:54.401Z,983.97
2023-04-27T01:09:54.400Z,984.00
2023-04-27T01:10:54.390Z,983.95
2023-04-27T01:11:54.366Z,983.94
2023-04-27T01:12:54.358Z,983.98
2023-04-27T01:13:54.343Z,984.06
2023-04-27T01:14:54.355Z,983.97
2023-04-27T01:15:54.342Z,984.00
2023-04-27T01:16:54.333Z,984.00
2023-04-27T01:17:54.394Z,984.02
2023-04-27T01:18:54.301Z,984.05
2023-04-27T01:19:54.294Z,984.01
2023-04-27T01:20:54.297Z,984.00
2023-04-27T01:21:54.272Z,984.06
2023-04-27T01:22:54.265Z,984.06
2023-04-27T01:23:54.258Z,984.07
2023-04-27T01:24:54.251Z,984.07
2023-04-27T01:25:54.269Z,984.00
2023-04-27T01:26:54.233Z,984.08
2023-04-27T01:27:54.247Z,984.05
2023-04-27T01:28:54.212Z,984.07
2023-04-27T01:29:54.206Z,984.06
2023-04-27T01:30:54.238Z,984.07
2023-04-27T01:31:54.185Z,984.04
2023-04-27T01:32:54.203Z,984.07
2023-04-27T01:33:54.165Z,984.10
2023-04-27T01:34:54.182Z,984.14
2023-04-27T01:35:54.163Z,984.07
2023-04-27T01:36:54.144Z,984.10
2023-04-27T01:37:54.131Z,984.15
2023-04-27T01:38:54.121Z,984.18
2023-04-27T01:39:54.126Z,984.17
2023-04-27T01:40:54.116Z,984.13
2023-04-27T01:41:55.193Z,984.15
2023-04-27T01:42:54.093Z,984.17
2023-04-27T01:43:54.082Z,984.21
2023-04-27T01:44:54.067Z,984.21
2023-04-27T01:45:54.210Z,984.22
2023-04-27T01:46:54.059Z,984.22
2023-04-27T01:47:54.060Z,984.18
2023-04-27T01:48:54.027Z,984.23
2023-04-27T01:49:54.018Z,984.17
2023-04-27T01:50:54.020Z,984.23
2023-04-27T01:51:54.009Z,984.26
2023-04-27T01:52:53.996Z,984.25
2023-04-27T01:53:53.979Z,984.31
2023-04-27T01:54:53.971Z,984.19
2023-04-27T01:55:53.968Z,984.23
2023-04-27T01:56:53.952Z,984.31
2023-04-27T01:57:53.943Z,984.26
2023-04-27T01:58:53.933Z,984.28
2023-04-27T01:59:53.923Z,984.28
2023-04-27T02:00:53.932Z,984.36
2023-04-27T02:01:53.957Z,984.33
2023-04-27T02:02:54.007Z,984.36
2023-04-27T02:03:53.996Z,984.31
2023-04-27T02:04:53.921Z,984.32
2023-04-27T02:05:53.882Z,984.34
2023-04-27T02:06:53.861Z,984.34
2023-04-27T02:07:53.847Z,984.37
2023-04-27T02:08:53.844Z,984.34
2023-04-27T02:09:53.823Z,984.41
2023-04-27T02:10:54.829Z,984.36
2023-04-27T02:11:53.811Z,984.34
2023-04-27T02:12:53.808Z,984.40
2023-04-27T02:13:53.793Z,984.41
2023-04-27T02:14:53.780Z,984.36
2023-04-27T02:15:53.797Z,984.35
2023-04-27T02:16:53.772Z,984.35
2023-04-27T02:17:53.856Z,984.30
2023-04-27T02:18:53.745Z,984.36
2023-04-27T02:19:53.731Z,984.32
2023-04-27T02:20:53.737Z,984.37
2023-04-27T02:21:53.709Z,984.43
2023-04-27T02:22:54.697Z,984.35
2023-04-27T02:23:53.693Z,984.39
2023-04-27T02:24:53.688Z,984.38
2023-04-27T02:25:53.673Z,984.38
2023-04-27T02:26:53.675Z,984.42
2023-04-27T02:27:53.656Z,984.39
2023-04-27T02:28:53.643Z,984.40
2023-04-27T02:29:53.635Z,984.35
2023-04-27T02:30:53.635Z,984.44
2023-04-27T02:31:53.712Z,984.52
2023-04-27T02:32:53.616Z,984.51
2023-04-27T02:33:53.595Z,984.50
2023-04-27T02:34:53.590Z,984.47
2023-04-27T02:35:53.582Z,984.55
2023-04-27T02:36:53.586Z,984.53
2023-04-27T02:37:53.567Z,984.54
2023-04-27T02:38:53.557Z,984.53
2023-04-27T02:39:53.545Z,984.56
2023-04-27T02:40:53.535Z,984.59
2023-04-27T02:41:53.542Z,984.72
2023-04-27T02:42:53.520Z,984.62
2023-04-27T02:43:53.509Z,984.60
2023-04-27T02:44:53.496Z,984.56
2023-04-27T02:45:53.486Z,984.62
2023-04-27T02:46:53.549Z,984.62
2023-04-27T02:47:53.497Z,984.63
2023-04-27T02:48:53.455Z,984.67
2023-04-27T02:49:53.465Z,984.67
2023-04-27T02:50:53.439Z,984.65
2023-04-27T02:51:53.442Z,984.75
2023-04-27T02:52:53.423Z,984.71
2023-04-27T02:53:53.415Z,984.63
2023-04-27T02:54:53.402Z,984.67
2023-04-27T02:55:53.386Z,984.65
2023-04-27T02:56:53.409Z,984.69
2023-04-27T02:57:53.379Z,984.63
2023-04-27T02:58:53.359Z,984.63
2023-04-27T02:59:53.355Z,984.70
2023-04-27T03:00:53.358Z,984.69
2023-04-27T03:01:53.343Z,984.70
2023-04-27T03:02:53.414Z,984.67
2023-04-27T03:03:53.458Z,984.67
2023-04-27T03:04:53.305Z,984.64
2023-04-27T03:05:53.297Z,984.59
2023-04-27T03:06:53.305Z,984.59
2023-04-27T03:07:53.321Z,984.62
2023-04-27T03:08:53.269Z,984.63
2023-04-27T03:09:53.281Z,984.66
2023-04-27T03:10:53.247Z,984.65
2023-04-27T03:11:53.257Z,984.67
2023-04-27T03:12:53.235Z,984.71
2023-04-27T03:13:53.223Z,984.74
2023-04-27T03:14:53.214Z,984.66
2023-04-27T03:15:53.212Z,984.68
2023-04-27T03:16:53.356Z,984.70
2023-04-27T03:17:53.217Z,984.71
2023-04-27T03:18:53.174Z,984.62
2023-04-27T03:19:53.177Z,984.66
2023-04-27T03:20:53.152Z,984.61
2023-04-27T03:21:53.170Z,984.66
2023-04-27T03:22:53.143Z,984.60
2023-04-27T03:23:53.133Z,984.63
2023-04-27T03:24:53.128Z,984.65
2023-04-27T03:25:53.114Z,984.67
2023-04-27T03:26:53.153Z,984.68
2023-04-27T03:27:53.102Z,984.69
2023-04-27T03:28:53.109Z,984.66
2023-04-27T03:29:53.082Z,984.68
2023-04-27T03:30:53.067Z,984.58
2023-04-27T03:31:53.124Z,984.62
2023-04-27T03:32:53.062Z,984.65
2023-04-27T03:33:53.048Z,984.59
2023-04-27T03:34:53.028Z,984.60
2023-04-27T03:35:53.021Z,984.64
2023-04-27T03:36:53.020Z,984.62
2023-04-27T03:37:53.013Z,984.66
2023-04-27T03:38:52.986Z,984.60
2023-04-27T03:39:52.984Z,984.60
2023-04-27T03:40:52.972Z,984.58
2023-04-27T03:41:52.987Z,984.54
2023-04-27T03:42:52.958Z,984.54
2023-04-27T03:43:52.949Z,984.57
2023-04-27T03:44:52.946Z,984.51
2023-04-27T03:45:53.040Z,984.49
2023-04-27T03:46:52.940Z,984.50
2023-04-27T03:47:52.969Z,984.55
2023-04-27T03:48:52.910Z,984.54
2023-04-27T03:49:52.921Z,984.64
2023-04-27T03:50:52.898Z,984.58
2023-04-27T03:51:52.892Z,984.56
2023-04-27T03:52:52.871Z,984.51
2023-04-27T03:53:52.893Z,984.60
2023-04-27T03:54:52.854Z,984.54
2023-04-27T03:55:52.852Z,984.58
2023-04-27T03:56:52.842Z,984.55
2023-04-27T03:57:52.828Z,984.48
2023-04-27T03:58:52.829Z,984.51
2023-04-27T03:59:52.801Z,984.60
2023-04-27T04:00:52.798Z,984.58
2023-04-27T04:01:52.807Z,984.62
2023-04-27T04:02:53.076Z,984.59
2023-04-27T04:03:52.843Z,984.63
2023-04-27T04:04:52.979Z,984.62
2023-04-27T04:05:52.750Z,984.57
2023-04-27T04:06:52.749Z,984.61
2023-04-27T04:07:52.733Z,984.64
2023-04-27T04:08:52.730Z,984.60
2023-04-27T04:09:52.719Z,984.61
2023-04-27T04:10:52.706Z,984.58
2023-04-27T04:11:52.707Z,984.56
2023-04-27T04:12:52.691Z,984.59
2023-04-27T04:13:52.697Z,984.52
2023-04-27T04:14:52.667Z,984.52
2023-04-27T04:15:52.722Z,984.48
2023-04-27T04:16:52.670Z,984.55
2023-04-27T04:17:52.700Z,984.54
2023-04-27T04:18:52.631Z,984.51
2023-04-27T04:19:52.617Z,984.45
2023-04-27T04:20:52.616Z,984.47
2023-04-27T04:21:52.613Z,984.45
2023-04-27T04:22:52.597Z,984.51
2023-04-27T04:23:52.598Z,984.47
2023-04-27T04:24:52.584Z,984.43
2023-04-27T04:25:52.569Z,984.49
2023-04-27T04:26:52.573Z,984.48
2023-04-27T04:27:52.549Z,984.48
2023-04-27T04:28:52.547Z,984.49
2023-04-27T04:29:52.525Z,984.50
2023-04-27T04:30:52.571Z,984.50
2023-04-27T04:31:52.733Z,984.53
2023-04-27T04:32:52.552Z,984.62
2023-04-27T04:33:52.494Z,984.57
2023-04-27T04:34:52.489Z,984.61
2023-04-27T04:35:52.511Z,984.68
2023-04-27T04:36:52.498Z,984.69
2023-04-27T04:37:52.460Z,984.72
2023-04-27T04:38:52.468Z,984.69
2023-04-27T04:39:52.448Z,984.75
2023-04-27T04:40:52.431Z,984.72
2023-04-27T04:41:52.436Z,984.73
2023-04-27T04:42:52.412Z,984.67
2023-04-27T04:43:52.413Z,984.70
2023-04-27T04:44:52.436Z,984.72
2023-04-27T04:45:52.383Z,984.70
2023-04-27T04:46:52.439Z,984.70
2023-04-27T04:47:52.388Z,984.72
2023-04-27T04:48:54.495Z,984.76
2023-04-27T04:49:52.353Z,984.77
2023-04-27T04:50:52.339Z,984.75
2023-04-27T04:51:52.342Z,984.80
2023-04-27T04:52:52.325Z,984.79
2023-04-27T04:53:52.308Z,984.75
2023-04-27T04:54:52.345Z,984.73
2023-04-27T04:55:52.296Z,984.81
2023-04-27T04:56:52.300Z,984.82
2023-04-27T04:57:52.285Z,984.96
2023-04-27T04:58:52.268Z,984.85
2023-04-27T04:59:52.265Z,984.87
2023-04-27T05:00:52.256Z,984.88
2023-04-27T05:01:52.266Z,984.92
2023-04-27T05:02:52.301Z,984.94
2023-04-27T05:03:52.363Z,984.99
2023-04-27T05:04:52.489Z,984.94
2023-04-27T05:05:52.220Z,984.98
2023-04-27T05:06:52.212Z,984.94
2023-04-27T05:07:52.191Z,984.99
2023-04-27T05:08:52.194Z,985.00
2023-04-27T05:09:52.183Z,985.00
2023-04-27T05:10:52.164Z,985.00
2023-04-27T05:11:52.197Z,984.99
2023-04-27T05:12:52.151Z,984.99
2023-04-27T05:13:52.143Z,985.04
2023-04-27T05:14:52.128Z,984.97
2023-04-27T05:15:52.192Z,984.96
2023-04-27T05:16:52.116Z,984.99
2023-04-27T05:17:52.124Z,985.02
2023-04-27T05:18:52.097Z,984.99
2023-04-27T05:19:52.100Z,985.04
2023-04-27T05:20:52.075Z,985.05
2023-04-27T05:21:52.081Z,985.08
2023-04-27T05:22:52.061Z,985.05
2023-04-27T05:23:52.050Z,985.05
2023-04-27T05:24:52.042Z,985.01
2023-04-27T05:25:52.032Z,985.04
2023-04-27T05:26:52.042Z,984.99
2023-04-27T05:27:52.017Z,985.06
2023-04-27T05:28:52.006Z,984.99
2023-04-27T05:29:52.107Z,985.00
2023-04-27T05:30:51.995Z,985.00
2023-04-27T05:31:52.057Z,985.08
2023-04-27T05:32:51.991Z,985.03
2023-04-27T05:33:51.970Z,985.09
2023-04-27T05:34:51.960Z,985.03
2023-04-27T05:35:51.947Z,985.10
2023-04-27T05:36:51.948Z,985.15
2023-04-27T05:37:51.932Z,985.11
2023-04-27T05:38:51.922Z,985.15
2023-04-27T05:39:51.910Z,985.16
2023-04-27T05:40:52.514Z,985.18
2023-04-27T05:41:51.903Z,985.20
2023-04-27T05:42:51.893Z,985.20
2023-04-27T05:43:51.884Z,985.21
2023-04-27T05:44:51.864Z,985.27
2023-04-27T05:45:51.926Z,985.24
2023-04-27T05:46:51.870Z,985.24
2023-04-27T05:47:51.865Z,985.25
2023-04-27T05:48:51.831Z,985.28
2023-04-27T05:49:51.824Z,985.24
2023-04-27T05:50:51.810Z,985.27
2023-04-27T05:51:51.818Z,985.29
2023-04-27T05:52:51.795Z,985.39
2023-04-27T05:53:51.784Z,985.29
2023-04-27T05:54:51.792Z,985.32
2023-04-27T05:55:51.767Z,985.35
2023-04-27T05:56:51.784Z,985.33
2023-04-27T05:57:57.267Z,985.38
2023-04-27T05:58:53.739Z,985.37
2023-04-27T05:59:51.734Z,985.39
2023-04-27T06:00:51.723Z,985.40
2023-04-27T06:01:51.738Z,985.40
2023-04-27T06:02:51.844Z,985.40
2023-04-27T06:03:51.772Z,985.39
2023-04-27T06:04:51.719Z,985.41
2023-04-27T06:05:51.678Z,985.36
2023-04-27T06:06:51.678Z,985.36
2023-04-27T06:07:51.675Z,985.35
2023-04-27T06:08:51.652Z,985.32
2023-04-27T06:09:51.646Z,985.34
2023-04-27T06:10:51.630Z,985.33
2023-04-27T06:11:51.628Z,985.37
2023-04-27T06:12:51.634Z,985.34
2023-04-27T06:13:51.612Z,985.35
2023-04-27T06:14:51.600Z,985.35
2023-04-27T06:15:51.637Z,985.31
2023-04-27T06:16:51.586Z,985.33
2023-04-27T06:17:51.644Z,985.34
2023-04-27T06:18:51.557Z,985.32
2023-04-27T06:19:51.559Z,985.34
2023-04-27T06:20:51.566Z,985.29
2023-04-27T06:21:51.534Z,985.29
2023-04-27T06:22:51.539Z,985.31
2023-04-27T06:23:51.514Z,985.39
2023-04-27T06:24:51.504Z,985.38
2023-04-27T06:25:51.523Z,985.42
2023-04-27T06:26:51.487Z,985.35
2023-04-27T06:27:51.500Z,985.36
2023-04-27T06:28:51.472Z,985.39
2023-04-27T06:29:51.461Z,985.41
2023-04-27T06:30:51.459Z,985.34
2023-04-27T06:31:51.476Z,985.38
2023-04-27T06:32:52.460Z,985.42
2023-04-27T06:33:51.471Z,985.40
2023-04-27T06:34:51.475Z,985.44
2023-04-27T06:35:51.411Z,985.42
2023-04-27T06:36:51.416Z,985.43
2023-04-27T06:37:51.395Z,985.43
2023-04-27T06:38:51.376Z,985.45
2023-04-27T06:39:51.394Z,985.47
2023-04-27T06:42:17.218Z,985.40
2023-04-27T06:43:17.214Z,985.48
2023-04-27T06:44:17.414Z,985.50
2023-04-27T06:45:17.194Z,985.55
2023-04-27T06:46:17.199Z,985.53
2023-04-27T06:47:17.201Z,985.53
2023-04-27T06:48:17.265Z,985.55
2023-04-27T06:49:17.161Z,985.54
2023-04-27T06:50:17.169Z,985.53
2023-04-27T06:51:18.247Z,985.52
2023-04-27T06:52:18.266Z,985.55
2023-04-27T06:53:18.228Z,985.56
2023-04-27T06:54:19.225Z,985.61
2023-04-27T06:55:18.221Z,985.59
2023-04-27T06:56:18.210Z,985.62
2023-04-27T06:57:18.204Z,985.55
2023-04-27T06:58:18.191Z,985.49
2023-04-27T06:59:18.349Z,985.50
2023-04-27T07:00:18.176Z,985.47
2023-04-27T07:01:18.196Z,985.54
2023-04-27T07:02:18.188Z,985.54
2023-04-27T07:03:18.276Z,985.60
2023-04-27T07:04:18.242Z,985.56
2023-04-27T07:05:18.124Z,985.58
2023-04-27T07:06:18.120Z,985.57
2023-04-27T07:07:18.123Z,985.70
2023-04-27T07:08:18.099Z,985.62
2023-04-27T07:09:26.926Z,985.63
2023-04-27T07:10:20.077Z,985.60
2023-04-27T07:11:18.070Z,985.64
2023-04-27T07:12:18.135Z,985.62
2023-04-27T07:13:18.047Z,985.64
2023-04-27T07:14:18.039Z,985.62
2023-04-27T07:15:18.030Z,985.63
2023-04-27T07:16:18.050Z,985.57
2023-04-27T07:17:18.111Z,985.56
2023-04-27T07:18:17.996Z,985.57
2023-04-27T07:19:18.006Z,985.63
2023-04-27T07:20:18.053Z,985.57
2023-04-27T07:21:17.994Z,985.60
2023-04-27T07:22:18.037Z,985.67
2023-04-27T07:23:17.947Z,985.60
2023-04-27T07:24:17.939Z,985.59
2023-04-27T07:25:17.933Z,985.64
2023-04-27T07:26:17.926Z,985.58
2023-04-27T07:27:17.923Z,985.61
2023-04-27T07:28:17.914Z,985.53
2023-04-27T07:29:26.438Z,985.62
2023-04-27T07:30:19.883Z,985.67
2023-04-27T07:31:17.906Z,985.58
2023-04-27T07:32:17.964Z,985.62
2023-04-27T07:33:17.850Z,985.64
2023-04-27T07:34:17.845Z,985.58
2023-04-27T07:35:17.843Z,985.57
2023-04-27T07:36:17.826Z,985.58
2023-04-27T07:37:17.829Z,985.58
2023-04-27T07:38:17.801Z,985.70
2023-04-27T07:39:17.795Z,985.61
2023-04-27T07:40:17.795Z,985.57
2023-04-27T07:41:17.791Z,985.61
2023-04-27T07:42:17.779Z,985.57
2023-04-27T07:43:17.759Z,985.64
2023-04-27T07:44:17.747Z,985.64
2023-04-27T07:45:17.736Z,985.58
2023-04-27T07:46:17.794Z,985.67
2023-04-27T07:47:17.724Z,985.63
2023-04-27T07:48:17.750Z,985.61
2023-04-27T07:49:17.690Z,985.71
2023-04-27T07:50:17.698Z,985.68
2023-04-27T07:51:17.672Z,985.63
2023-04-27T07:52:17.687Z,985.68
2023-04-27T07:53:17.698Z,985.64
2023-04-27T07:54:17.648Z,985.70
2023-04-27T07:55:17.632Z,985.73
2023-04-27T07:56:17.629Z,985.68
2023-04-27T07:57:17.623Z,985.62
2023-04-27T07:58:17.605Z,985.69
2023-04-27T07:59:17.611Z,985.71
2023-04-27T08:00:17.596Z,985.71
2023-04-27T08:01:19.509Z,985.69
2023-04-27T08:02:19.599Z,985.68
2023-04-27T08:03:18.781Z,985.67
2023-04-27T08:04:17.841Z,985.64
2023-04-27T08:05:17.751Z,985.62
2023-04-27T08:06:18.116Z,985.57
2023-04-27T08:07:17.911Z,985.58
2023-04-27T08:08:18.033Z,985.57
2023-04-27T08:09:17.547Z,985.51
2023-04-27T08:10:17.501Z,985.51
2023-04-27T08:11:17.490Z,985.50
2023-04-27T08:12:17.489Z,985.47
2023-04-27T08:13:17.471Z,985.54
2023-04-27T08:14:17.453Z,985.48
2023-04-27T08:15:18.456Z,985.51
2023-04-27T08:16:17.484Z,985.54
2023-04-27T08:17:17.459Z,985.47
2023-04-27T08:18:17.451Z,985.43
2023-04-27T08:19:17.408Z,985.45
2023-04-27T08:20:17.399Z,985.41
2023-04-27T08:21:17.392Z,985.40
2023-04-27T08:22:17.377Z,985.42
2023-04-27T08:23:17.377Z,985.39
2023-04-27T08:24:17.368Z,985.37
2023-04-27T08:25:17.366Z,985.39
2023-04-27T08:26:17.355Z,985.42
2023-04-27T08:27:17.330Z,985.47
2023-04-27T08:28:17.328Z,985.44
2023-04-27T08:29:27.221Z,985.39
2023-04-27T08:30:19.300Z,985.36
2023-04-27T08:31:17.295Z,985.42
2023-04-27T08:32:17.297Z,985.32
2023-04-27T08:33:17.295Z,985.37
2023-04-27T08:34:17.264Z,985.33
2023-04-27T08:35:17.262Z,985.39
2023-04-27T08:36:17.246Z,985.40
2023-04-27T08:37:17.239Z,985.40
2023-04-27T08:38:17.254Z,985.40
2023-04-27T08:39:17.214Z,985.42
2023-04-27T08:40:17.220Z,985.36
2023-04-27T08:41:21.824Z,985.39
2023-04-27T08:42:18.192Z,985.40
2023-04-27T08:43:17.190Z,985.39
2023-04-27T08:44:17.184Z,985.34
2023-04-27T08:45:17.161Z,985.40
2023-04-27T08:46:17.185Z,985.33
2023-04-27T08:47:18.834Z,985.43
2023-04-27T08:48:17.189Z,985.39
2023-04-27T08:49:17.509Z,985.30
2023-04-27T08:50:17.116Z,985.38
2023-04-27T08:51:17.095Z,985.35
2023-04-27T08:52:18.102Z,985.39
2023-04-27T08:53:17.377Z,985.32
2023-04-27T08:54:17.166Z,985.33
2023-04-27T08:55:17.072Z,985.33
2023-04-27T08:56:17.054Z,985.34
2023-04-27T08:57:17.164Z,985.36
2023-04-27T08:58:17.051Z,985.37
2023-04-27T08:59:17.549Z,985.31
2023-04-27T09:00:17.010Z,985.40
2023-04-27T09:01:17.068Z,985.31
2023-04-27T09:02:17.075Z,985.33
2023-04-27T09:03:17.090Z,985.36
2023-04-27T09:04:17.151Z,985.36
2023-04-27T09:05:16.987Z,985.38
2023-04-27T09:06:17.116Z,985.34
2023-04-27T09:07:16.947Z,985.29
2023-04-27T09:08:16.938Z,985.34
2023-04-27T09:09:16.928Z,985.40
2023-04-27T09:10:16.906Z,985.35
2023-04-27T09:11:16.896Z,985.31
2023-04-27T09:12:16.889Z,985.37
2023-04-27T09:13:16.924Z,985.39
2023-04-27T09:14:16.878Z,985.36
2023-04-27T09:15:16.861Z,985.34
2023-04-27T09:16:16.962Z,985.39
2023-04-27T09:17:16.863Z,985.37
2023-04-27T09:18:16.831Z,985.35
2023-04-27T09:19:16.821Z,985.45
2023-04-27T09:20:16.807Z,985.41
2023-04-27T09:21:16.803Z,985.44
2023-04-27T09:22:16.809Z,985.39
2023-04-27T09:23:16.788Z,985.34
2023-04-27T09:24:16.771Z,985.41
2023-04-27T09:25:16.768Z,985.40
2023-04-27T09:26:16.753Z,985.48
2023-04-27T09:27:16.759Z,985.43
2023-04-27T09:28:16.735Z,985.48
2023-04-27T09:29:16.729Z,985.53
2023-04-27T09:30:16.717Z,985.51
2023-04-27T09:31:16.711Z,985.55
2023-04-27T09:32:17.165Z,985.55
2023-04-27T09:33:17.697Z,985.58
2023-04-27T09:34:16.677Z,985.59
2023-04-27T09:35:16.671Z,985.47
2023-04-27T09:36:16.655Z,985.48
2023-04-27T09:37:16.666Z,985.55
2023-04-27T09:38:17.060Z,985.54
2023-04-27T09:39:17.629Z,985.51
2023-04-27T09:40:16.626Z,985.49
2023-04-27T09:41:16.612Z,985.52
2023-04-27T09:42:16.613Z,985.45
2023-04-27T09:43:16.602Z,985.43
2023-04-27T09:44:16.584Z,985.48
2023-04-27T09:45:16.587Z,985.44
2023-04-27T09:46:16.577Z,985.41
2023-04-27T09:47:16.560Z,985.44
2023-04-27T09:48:16.544Z,985.40
2023-04-27T09:49:16.530Z,985.45
2023-04-27T09:50:16.518Z,985.46
2023-04-27T09:51:16.514Z,985.39
2023-04-27T09:52:16.516Z,985.38
2023-04-27T09:53:16.502Z,985.45
2023-04-27T09:54:16.490Z,985.44
2023-04-27T09:55:16.472Z,985.40
2023-04-27T09:56:16.555Z,985.42
2023-04-27T09:57:16.465Z,985.40
2023-04-27T09:58:16.449Z,985.41
2023-04-27T09:59:17.429Z,985.36
2023-04-27T10:00:16.420Z,985.31
2023-04-27T10:01:16.464Z,985.30
2023-04-27T10:02:24.731Z,985.33
2023-04-27T10:03:18.453Z,985.31
2023-04-27T10:04:17.583Z,985.28
2023-04-27T10:05:16.415Z,985.27
2023-04-27T10:06:16.368Z,985.26
2023-04-27T10:07:16.370Z,985.29
2023-04-27T10:08:16.349Z,985.28
2023-04-27T10:09:16.358Z,985.25
2023-04-27T10:10:16.336Z,985.32
2023-04-27T10:11:16.346Z,985.22
2023-04-27T10:12:16.331Z,985.28
2023-04-27T10:13:16.295Z,985.26
2023-04-27T10:14:16.290Z,985.27
2023-04-27T10:15:16.298Z,985.28
2023-04-27T10:16:16.362Z,985.29
2023-04-27T10:17:16.294Z,985.31
2023-04-27T10:18:16.287Z,985.33
2023-04-27T10:19:16.335Z,985.35
2023-04-27T10:20:16.242Z,985.30
2023-04-27T10:21:16.209Z,985.30
2023-04-27T10:22:17.202Z,985.20
2023-04-27T10:23:16.201Z,985.21
2023-04-27T10:24:16.184Z,985.20
2023-04-27T10:25:16.177Z,985.23
2023-04-27T10:26:16.164Z,985.22
2023-04-27T10:27:16.186Z,985.20
2023-04-27T10:28:16.150Z,985.16
2023-04-27T10:29:16.333Z,985.16
2023-04-27T10:30:16.120Z,985.12
2023-04-27T10:31:16.161Z,985.06
2023-04-27T10:32:16.113Z,985.04
2023-04-27T10:33:16.098Z,985.05
2023-04-27T10:34:16.080Z,985.08
2023-04-27T10:35:16.072Z,985.06
2023-04-27T10:36:16.072Z,985.06
2023-04-27T10:37:16.061Z,984.94
2023-04-27T10:38:16.042Z,984.92
2023-04-27T10:39:16.588Z,984.94
2023-04-27T10:40:16.017Z,984.90
2023-04-27T10:41:17.018Z,984.87
2023-04-27T10:42:16.007Z,984.85
2023-04-27T10:43:15.991Z,984.86
2023-04-27T10:44:15.976Z,984.77
2023-04-27T10:45:15.972Z,984.77
2023-04-27T10:46:16.373Z,984.75
2023-04-27T10:47:15.958Z,984.78
2023-04-27T10:48:16.104Z,984.76
2023-04-27T10:49:15.936Z,984.72
2023-04-27T10:50:15.917Z,984.78
2023-04-27T10:51:15.925Z,984.71
2023-04-27T10:52:15.976Z,984.70
2023-04-27T10:53:15.898Z,984.75
2023-04-27T10:54:15.886Z,984.70
2023-04-27T10:55:15.867Z,984.69
2023-04-27T10:56:15.903Z,984.74
2023-04-27T10:57:15.858Z,984.79
2023-04-27T10:58:15.840Z,984.68
2023-04-27T10:59:16.008Z,984.73
2023-04-27T11:00:16.557Z,984.57
2023-04-27T11:01:16.851Z,984.60
2023-04-27T11:02:15.843Z,984.63
2023-04-27T11:03:15.947Z,984.64
2023-04-27T11:04:16.023Z,984.57
2023-04-27T11:05:15.837Z,984.64
2023-04-27T11:06:15.748Z,984.56
2023-04-27T11:07:15.790Z,984.56
2023-04-27T11:08:15.746Z,984.54
2023-04-27T11:09:15.727Z,984.48
2023-04-27T11:10:15.759Z,984.55
2023-04-27T11:11:16.703Z,984.51
2023-04-27T11:12:16.697Z,984.49
2023-04-27T11:13:15.734Z,984.56
2023-04-27T11:14:15.949Z,984.59
2023-04-27T11:15:15.665Z,984.56
2023-04-27T11:16:15.697Z,984.46
2023-04-27T11:17:16.654Z,984.57
2023-04-27T11:18:15.665Z,984.52
2023-04-27T11:19:15.925Z,984.51
2023-04-27T11:20:15.682Z,984.51
2023-04-27T11:21:15.618Z,984.49
2023-04-27T11:22:15.602Z,984.48
2023-04-27T11:23:15.577Z,984.53
2023-04-27T11:24:15.756Z,984.50
2023-04-27T11:25:15.556Z,984.52
2023-04-27T11:26:15.545Z,984.58
2023-04-27T11:27:15.549Z,984.51
2023-04-27T11:28:15.540Z,984.47
2023-04-27T11:29:15.721Z,984.48
2023-04-27T11:30:15.567Z,984.58
2023-04-27T11:31:15.573Z,984.54
2023-04-27T11:32:15.497Z,984.48
2023-04-27T11:33:15.488Z,984.47
2023-04-27T11:34:16.271Z,984.51
2023-04-27T11:35:16.470Z,984.50
2023-04-27T11:36:15.465Z,984.46
2023-04-27T11:37:18.377Z,984.45
2023-04-27T11:38:16.434Z,984.47
2023-04-27T11:39:15.644Z,984.36
2023-04-27T11:40:15.430Z,984.37
2023-04-27T11:41:15.404Z,984.46
2023-04-27T11:42:15.414Z,984.45
2023-04-27T11:43:15.414Z,984.40
2023-04-27T11:44:15.377Z,984.32
2023-04-27T11:45:15.369Z,984.29
2023-04-27T11:46:15.483Z,984.35
2023-04-27T11:47:16.892Z,984.26
2023-04-27T11:48:15.335Z,984.33
2023-04-27T11:49:15.598Z,984.24
2023-04-27T11:50:15.375Z,984.26
2023-04-27T11:51:15.302Z,984.26
2023-04-27T11:52:15.305Z,984.15
2023-04-27T11:53:17.462Z,984.16
2023-04-27T11:54:15.477Z,984.22
2023-04-27T11:55:15.277Z,984.21
2023-04-27T11:56:15.279Z,984.21
2023-04-27T11:57:15.257Z,984.28
2023-04-27T11:58:15.237Z,984.23
2023-04-27T11:59:15.326Z,984.19
2023-04-27T12:00:15.279Z,984.27
2023-04-27T12:01:18.123Z,984.27
2023-04-27T12:02:16.247Z,984.35
2023-04-27T12:03:15.358Z,984.33
2023-04-27T12:04:15.528Z,984.35
2023-04-27T12:05:15.487Z,984.38
2023-04-27T12:06:31.753Z,984.36
2023-04-27T12:07:17.163Z,984.35
2023-04-27T12:08:15.135Z,984.38
2023-04-27T12:09:15.124Z,984.35
2023-04-27T12:10:15.114Z,984.34
2023-04-27T12:11:15.101Z,984.43
2023-04-27T12:12:15.085Z,984.42
2023-04-27T12:13:15.086Z,984.39
2023-04-27T12:14:15.362Z,984.39
2023-04-27T12:15:15.061Z,984.40
2023-04-27T12:16:15.123Z,984.33
2023-04-27T12:17:15.062Z,984.32
2023-04-27T12:18:15.118Z,984.37
2023-04-27T12:19:15.041Z,984.42
2023-04-27T12:20:15.016Z,984.40
2023-04-27T12:21:14.996Z,984.34
2023-04-27T12:22:14.980Z,984.38
2023-04-27T12:23:14.985Z,984.46
2023-04-27T12:24:15.145Z,984.39
2023-04-27T12:25:14.954Z,984.38
2023-04-27T12:26:15.314Z,984.32
2023-04-27T12:27:15.936Z,984.36
2023-04-27T12:28:14.935Z,984.40
2023-04-27T12:29:14.907Z,984.42
2023-04-27T12:30:14.899Z,984.33